createdAt,value
2018-05-18T00:02:02.649Z,51.43
2018-05-18T00:04:30.188Z,52.30
2018-05-18T00:06:57.696Z,52.90
2018-05-18T00:09:25.257Z,53.17
2018-05-18T00:11:52.989Z,53.47
2018-05-18T00:14:20.515Z,50.83
2018-05-18T00:16:48.793Z,51.20
2018-05-18T00:19:17.081Z,54.07
2018-05-18T00:21:44.593Z,54.80
2018-05-18T00:24:12.116Z,53.40
2018-05-18T00:26:39.616Z,51.60
2018-05-18T00:29:07.133Z,52.00
2018-05-18T00:31:34.677Z,54.80
2018-05-18T00:34:02.209Z,51.53
2018-05-18T00:36:30.481Z,50.47
2018-05-18T00:38:58.770Z,53.87
2018-05-18T00:41:27.048Z,53.30
2018-05-18T00:43:54.584Z,55.43
2018-05-18T00:46:22.097Z,55.20
2018-05-18T00:48:49.641Z,54.83
2018-05-18T00:51:17.197Z,53.40
2018-05-18T00:53:44.757Z,55.90
2018-05-18T00:56:12.260Z,55.60
2018-05-18T00:58:39.787Z,52.30
2018-05-18T01:01:07.334Z,54.87
2018-05-18T01:03:34.856Z,51.03
2018-05-18T01:06:02.453Z,52.77
2018-05-18T01:08:29.987Z,50.70
2018-05-18T01:10:58.260Z,50.87
2018-05-18T01:13:26.538Z,48.93
2018-05-18T01:15:54.899Z,51.87
2018-05-18T01:18:22.348Z,50.50
2018-05-18T01:20:49.909Z,46.37
2018-05-18T01:23:18.925Z,49.60
2018-05-18T01:25:47.588Z,50.97
2018-05-18T01:28:15.860Z,52.77
2018-05-18T01:30:43.384Z,51.27
2018-05-18T01:33:10.885Z,51.40
2018-05-18T01:35:38.409Z,52.37
2018-05-18T01:38:05.916Z,53.10
2018-05-18T01:40:35.101Z,50.27
2018-05-18T01:43:03.415Z,54.20
2018-05-18T01:45:31.130Z,51.97
2018-05-18T01:47:58.644Z,52.30
2018-05-18T01:50:26.203Z,53.13
2018-05-18T01:52:53.713Z,50.17
2018-05-18T01:55:21.237Z,50.13
2018-05-18T01:57:48.749Z,53.57
2018-05-18T02:00:17.035Z,52.37
2018-05-18T02:02:45.304Z,53.17
2018-05-18T02:05:13.589Z,53.73
2018-05-18T02:07:41.856Z,53.33
2018-05-18T02:10:10.161Z,53.43
2018-05-18T02:12:37.660Z,51.77
2018-05-18T02:15:05.185Z,50.50
2018-05-18T02:17:32.685Z,54.93
2018-05-18T02:20:01.004Z,54.77
2018-05-18T02:22:28.561Z,52.37
2018-05-18T02:24:56.087Z,53.63
2018-05-18T02:27:24.397Z,56.33
2018-05-18T02:29:51.923Z,53.60
2018-05-18T02:32:20.197Z,52.30
2018-05-18T02:34:47.725Z,48.97
2018-05-18T02:37:15.233Z,51.43
2018-05-18T02:39:43.514Z,53.07
2018-05-18T02:42:11.787Z,49.00
2018-05-18T02:44:39.319Z,47.90
2018-05-18T02:47:06.828Z,51.43
2018-05-18T02:49:34.361Z,50.70
2018-05-18T02:52:02.638Z,51.17
2018-05-18T02:54:30.923Z,50.47
2018-05-18T02:56:58.431Z,48.70
2018-05-18T02:59:25.949Z,46.03
2018-05-18T03:01:53.453Z,50.10
2018-05-18T03:04:21.061Z,47.33
2018-05-18T03:06:48.572Z,49.80
2018-05-18T03:09:16.177Z,46.20
2018-05-18T03:11:43.686Z,46.50
2018-05-18T03:14:11.208Z,47.23
2018-05-18T03:16:38.762Z,48.00
2018-05-18T03:19:06.280Z,47.30
2018-05-18T03:21:34.568Z,45.67
2018-05-18T03:24:02.841Z,45.23
2018-05-18T03:26:31.128Z,45.33
2018-05-18T03:28:59.396Z,45.97
2018-05-18T03:31:27.684Z,42.20
2018-05-18T03:33:55.200Z,47.10
2018-05-18T03:36:22.803Z,45.13
2018-05-18T03:38:50.372Z,45.17
2018-05-18T03:41:17.934Z,42.27
2018-05-18T03:43:45.438Z,43.20
2018-05-18T03:46:12.964Z,43.93
2018-05-18T03:48:40.476Z,42.20
2018-05-18T03:51:08.761Z,44.40
2018-05-18T03:53:37.032Z,44.20
2018-05-18T03:56:05.324Z,44.97
2018-05-18T03:58:32.888Z,45.80
2018-05-18T04:01:00.418Z,42.20
2018-05-18T04:03:39.832Z,42.80
2018-05-18T04:06:19.363Z,42.63
2018-05-18T04:08:52.744Z,41.57
2018-05-18T04:11:20.276Z,42.93
2018-05-18T04:13:47.836Z,45.33
2018-05-18T04:16:15.396Z,44.00
2018-05-18T04:18:42.960Z,43.27
2018-05-18T04:21:10.484Z,40.50
2018-05-18T04:23:37.994Z,43.67
2018-05-18T04:26:05.552Z,42.90
2018-05-18T04:28:33.099Z,41.47
2018-05-18T04:31:00.649Z,41.80
2018-05-18T04:33:28.153Z,39.60
2018-05-18T04:35:55.760Z,39.20
2018-05-18T04:38:23.272Z,39.70
2018-05-18T04:40:50.885Z,38.80
2018-05-18T04:43:18.395Z,41.60
2018-05-18T04:45:45.925Z,39.03
2018-05-18T04:48:13.429Z,38.77
2018-05-18T04:50:41.021Z,40.63
2018-05-18T04:53:08.520Z,39.60
2018-05-18T04:55:36.041Z,36.88
2018-05-18T04:58:03.548Z,38.80
2018-05-18T05:00:31.069Z,37.03
2018-05-18T05:02:58.569Z,38.27
2018-05-18T05:05:26.120Z,37.23
2018-05-18T05:07:53.632Z,37.40
2018-05-18T05:10:21.153Z,38.10
2018-05-18T05:12:48.672Z,38.77
2018-05-18T05:15:16.176Z,37.83
2018-05-18T05:17:43.703Z,41.17
2018-05-18T05:20:11.209Z,37.37
2018-05-18T05:22:39.503Z,36.67
2018-05-18T05:25:07.015Z,35.60
2018-05-18T05:27:34.532Z,36.97
2018-05-18T05:30:02.038Z,33.40
2018-05-18T05:32:29.566Z,32.73
2018-05-18T05:34:57.077Z,37.80
2018-05-18T05:37:24.596Z,33.73
2018-05-18T05:39:52.096Z,34.57
2018-05-18T05:42:19.622Z,34.00
2018-05-18T05:44:47.126Z,33.80
2018-05-18T05:47:14.645Z,32.47
2018-05-18T05:49:42.157Z,31.03
2018-05-18T05:52:09.682Z,31.53
2018-05-18T05:54:37.957Z,30.77
2018-05-18T05:57:06.245Z,31.27
2018-05-18T05:59:33.748Z,32.67
2018-05-18T06:02:01.273Z,31.73
2018-05-18T06:04:28.791Z,30.93
2018-05-18T06:06:57.361Z,28.77
2018-05-18T06:09:25.228Z,30.90
2018-05-18T06:11:52.757Z,31.83
2018-05-18T06:14:20.258Z,30.90
2018-05-18T06:16:47.780Z,33.93
2018-05-18T06:19:15.285Z,33.87
2018-05-18T06:21:43.574Z,32.80
2018-05-18T06:24:11.080Z,32.80
2018-05-18T06:26:38.616Z,33.63
2018-05-18T06:29:06.187Z,32.47
2018-05-18T06:31:34.408Z,32.13
2018-05-18T06:34:01.945Z,31.83
2018-05-18T06:36:29.444Z,32.40
2018-05-18T06:38:56.960Z,32.80
2018-05-18T06:41:24.456Z,33.47
2018-05-18T06:43:51.976Z,32.60
2018-05-18T06:46:19.478Z,33.20
2018-05-18T06:48:47.000Z,32.30
2018-05-18T06:51:14.496Z,32.47
2018-05-18T06:53:42.015Z,32.10
2018-05-18T06:56:09.521Z,35.00
2018-05-18T06:58:37.108Z,31.23
2018-05-18T07:01:04.569Z,30.10
2018-05-18T07:03:32.089Z,32.27
2018-05-18T07:05:59.600Z,31.93
2018-05-18T07:08:27.121Z,27.90
2018-05-18T07:10:54.620Z,32.47
2018-05-18T07:13:22.149Z,32.10
2018-05-18T07:15:49.660Z,29.50
2018-05-18T07:18:17.961Z,29.07
2018-05-18T07:20:45.470Z,28.33
2018-05-18T07:23:12.977Z,30.50
2018-05-18T07:25:40.496Z,29.73
2018-05-18T07:28:08.774Z,28.23
2018-05-18T07:30:37.061Z,28.23
2018-05-18T07:33:05.329Z,27.20
2018-05-18T07:35:33.621Z,28.27
2018-05-18T07:38:01.129Z,30.50
2018-05-18T07:40:28.648Z,29.17
2018-05-18T07:42:57.064Z,26.77
2018-05-18T07:45:24.591Z,27.30
2018-05-18T07:47:52.101Z,25.03
2018-05-18T07:50:19.625Z,26.00
2018-05-18T07:52:47.129Z,25.87
2018-05-18T07:55:15.416Z,28.63
2018-05-18T07:57:43.697Z,28.20
2018-05-18T08:00:11.980Z,27.40
2018-05-18T08:02:39.482Z,26.23
2018-05-18T08:05:07.009Z,26.83
2018-05-18T08:07:34.511Z,27.13
2018-05-18T08:10:02.040Z,26.97
2018-05-18T08:12:29.545Z,28.80
2018-05-18T08:14:57.843Z,26.33
2018-05-18T08:17:25.356Z,26.90
2018-05-18T08:19:52.897Z,27.00
2018-05-18T08:22:20.405Z,24.97
2018-05-18T08:24:48.681Z,26.73
2018-05-18T08:27:22.872Z,26.37
2018-05-18T08:29:50.385Z,25.70
2018-05-18T08:32:17.912Z,22.80
2018-05-18T08:34:46.199Z,24.70
2018-05-18T08:37:14.495Z,23.50
2018-05-18T08:39:42.010Z,24.80
2018-05-18T08:42:09.533Z,26.63
2018-05-18T08:44:37.041Z,25.17
2018-05-18T08:47:05.332Z,24.90
2018-05-18T08:49:32.828Z,24.00
2018-05-18T08:52:00.355Z,25.07
2018-05-18T08:54:27.869Z,24.63
2018-05-18T08:56:55.400Z,25.20
2018-05-18T08:59:22.899Z,24.27
2018-05-18T09:01:50.419Z,23.70
2018-05-18T09:04:17.919Z,23.30
2018-05-18T09:06:46.215Z,22.40
2018-05-18T09:09:13.728Z,22.30
2018-05-18T09:11:41.258Z,22.43
2018-05-18T09:14:08.758Z,23.10
2018-05-18T09:16:36.300Z,23.10
2018-05-18T09:19:03.824Z,21.27
2018-05-18T09:21:31.329Z,23.17
2018-05-18T09:23:58.848Z,24.67
2018-05-18T09:26:26.368Z,23.70
2018-05-18T09:28:54.681Z,21.90
2018-05-18T09:31:22.189Z,22.43
2018-05-18T09:33:49.717Z,20.57
2018-05-18T09:36:17.243Z,21.10
2018-05-18T09:38:44.780Z,22.73
2018-05-18T09:41:13.051Z,23.70
2018-05-18T09:43:41.328Z,21.77
2018-05-18T09:46:09.598Z,21.73
2018-05-18T09:48:37.893Z,20.77
2018-05-18T09:51:05.393Z,19.97
2018-05-18T09:53:32.912Z,19.37
2018-05-18T09:56:00.421Z,19.57
2018-05-18T09:58:27.945Z,19.37
2018-05-18T10:00:55.445Z,19.27
2018-05-18T10:03:22.944Z,20.67
2018-05-18T10:05:50.466Z,18.73
2018-05-18T10:08:17.972Z,18.33
2018-05-18T10:10:45.497Z,18.93
2018-05-18T10:13:13.760Z,18.30
2018-05-18T10:15:41.285Z,18.00
2018-05-18T10:18:08.793Z,17.30
2018-05-18T10:20:37.106Z,17.17
2018-05-18T10:23:04.605Z,18.20
2018-05-18T10:25:32.132Z,18.00
2018-05-18T10:27:59.637Z,19.20
2018-05-18T10:30:31.619Z,19.17
2018-05-18T10:32:59.890Z,18.33
2018-05-18T10:35:28.177Z,19.67
2018-05-18T10:37:55.689Z,18.70
2018-05-18T10:40:23.225Z,17.30
2018-05-18T10:42:51.023Z,17.43
2018-05-18T10:45:18.651Z,15.43
2018-05-18T10:47:46.076Z,15.00
2018-05-18T10:50:13.605Z,17.70
2018-05-18T10:52:41.106Z,17.80
2018-05-18T10:55:08.633Z,18.17
2018-05-18T10:57:36.136Z,18.20
2018-05-18T11:00:03.660Z,16.17
2018-05-18T11:02:31.924Z,15.73
2018-05-18T11:04:59.437Z,16.40
2018-05-18T11:07:27.061Z,15.97
2018-05-18T11:09:54.640Z,16.97
2018-05-18T11:12:22.176Z,15.53
2018-05-18T11:14:49.699Z,15.43
2018-05-18T11:17:17.225Z,15.40
2018-05-18T11:19:44.728Z,15.27
2018-05-18T11:22:12.257Z,15.03
2018-05-18T11:24:39.756Z,15.37
2018-05-18T11:27:08.043Z,14.63
2018-05-18T11:29:35.548Z,17.13
2018-05-18T11:32:03.069Z,16.50
2018-05-18T11:34:30.577Z,17.77
2018-05-18T11:36:58.097Z,15.00
2018-05-18T11:39:25.605Z,14.47
2018-05-18T11:41:53.130Z,14.60
2018-05-18T11:44:20.632Z,13.97
2018-05-18T11:46:48.926Z,14.70
2018-05-18T11:49:16.444Z,13.73
2018-05-18T11:51:43.973Z,14.77
2018-05-18T11:54:11.485Z,14.27
2018-05-18T11:56:39.760Z,14.87
2018-05-18T11:59:08.065Z,13.13
2018-05-18T12:01:35.573Z,14.97
2018-05-18T12:04:03.092Z,14.27
2018-05-18T12:06:30.588Z,13.50
2018-05-18T12:08:58.112Z,14.77
2018-05-18T12:11:25.621Z,12.27
2018-05-18T12:13:53.917Z,12.83
2018-05-18T12:16:22.189Z,13.20
2018-05-18T12:18:50.481Z,12.67
2018-05-18T12:21:18.017Z,13.33
2018-05-18T12:23:46.310Z,12.83
2018-05-18T12:26:13.934Z,12.50
2018-05-18T12:28:41.361Z,12.60
2018-05-18T12:31:08.868Z,11.87
2018-05-18T12:33:37.161Z,12.00
2018-05-18T12:36:04.666Z,10.60
2018-05-18T12:38:32.209Z,12.00
2018-05-18T12:40:59.790Z,13.70
2018-05-18T12:43:28.013Z,12.77
2018-05-18T12:45:55.525Z,12.47
2018-05-18T12:48:23.053Z,14.63
2018-05-18T12:50:50.552Z,13.70
2018-05-18T12:53:18.052Z,13.53
2018-05-18T12:55:45.578Z,13.80
2018-05-18T12:58:13.848Z,12.70
2018-05-18T13:00:41.371Z,13.80
2018-05-18T13:03:08.881Z,12.90
2018-05-18T13:05:37.173Z,13.50
2018-05-18T13:08:04.769Z,15.00
2018-05-18T13:10:32.218Z,15.37
2018-05-18T13:12:59.726Z,14.77
2018-05-18T13:15:28.018Z,13.73
2018-05-18T13:17:55.532Z,14.00
2018-05-18T13:20:23.048Z,16.10
2018-05-18T13:22:50.553Z,14.70
2018-05-18T13:25:18.085Z,14.60
2018-05-18T13:27:45.597Z,14.40
2018-05-18T13:30:14.215Z,13.33
2018-05-18T13:32:41.720Z,14.53
2018-05-18T13:35:09.241Z,14.10
2018-05-18T13:37:36.740Z,13.63
2018-05-18T13:40:04.273Z,14.73
2018-05-18T13:42:31.784Z,13.70
2018-05-18T13:45:00.145Z,14.17
2018-05-18T13:47:27.592Z,14.90
2018-05-18T13:49:55.090Z,14.33
2018-05-18T13:52:22.613Z,14.37
2018-05-18T13:54:50.116Z,12.73
2018-05-18T13:57:17.671Z,12.97
2018-05-18T13:59:45.927Z,13.10
2018-05-18T14:02:14.218Z,12.73
2018-05-18T14:04:41.727Z,13.00
2018-05-18T14:07:09.249Z,12.57
2018-05-18T14:09:36.753Z,13.23
2018-05-18T14:12:04.268Z,13.00
2018-05-18T14:14:31.772Z,13.10
2018-05-18T14:17:00.064Z,12.80
2018-05-18T14:19:28.330Z,12.17
2018-05-18T14:21:56.621Z,12.73
2018-05-18T14:24:24.893Z,11.97
2018-05-18T14:26:53.181Z,14.67
2018-05-18T14:29:20.689Z,12.70
2018-05-18T14:31:48.218Z,13.73
2018-05-18T14:34:15.725Z,13.70
2018-05-18T14:36:43.251Z,11.97
2018-05-18T14:39:10.749Z,12.03
2018-05-18T14:41:39.041Z,12.60
2018-05-18T14:44:07.304Z,13.30
2018-05-18T14:46:35.574Z,12.20
2018-05-18T14:49:03.868Z,13.50
2018-05-18T14:51:32.141Z,13.17
2018-05-18T14:54:00.429Z,12.10
2018-05-18T14:56:27.941Z,12.20
2018-05-18T14:58:55.466Z,12.97
2018-05-18T15:01:22.972Z,11.37
2018-05-18T15:03:50.501Z,10.60
2018-05-18T15:06:18.008Z,11.40
2018-05-18T15:08:46.296Z,11.60
2018-05-18T15:11:13.804Z,11.00
2018-05-18T15:13:41.321Z,11.90
2018-05-18T15:16:08.820Z,10.30
2018-05-18T15:18:36.407Z,11.40
2018-05-18T15:21:04.675Z,11.53
2018-05-18T15:23:32.208Z,11.50
2018-05-18T15:25:59.725Z,12.00
2018-05-18T15:28:27.257Z,10.73
2018-05-18T15:30:55.521Z,11.70
2018-05-18T15:33:23.045Z,12.20
2018-05-18T15:35:50.557Z,12.07
2018-05-18T15:38:18.850Z,12.87
2018-05-18T15:40:46.353Z,10.90
2018-05-18T15:43:13.878Z,11.73
2018-05-18T15:45:41.380Z,11.67
2018-05-18T15:48:08.910Z,10.50
2018-05-18T15:50:36.413Z,11.53
2018-05-18T15:53:04.685Z,10.83
2018-05-18T15:55:32.295Z,11.70
2018-05-18T15:57:59.733Z,11.30
2018-05-18T16:00:27.258Z,11.80
2018-05-18T16:02:54.757Z,11.20
2018-05-18T16:05:22.277Z,12.30
2018-05-18T16:07:49.787Z,12.30
2018-05-18T16:10:17.308Z,13.43
2018-05-18T16:12:44.826Z,13.17
2018-05-18T16:15:12.457Z,11.10
2018-05-18T16:17:39.965Z,12.17
2018-05-18T16:20:07.489Z,11.90
2018-05-18T16:22:34.993Z,12.57
2018-05-18T16:25:03.293Z,11.83
2018-05-18T16:27:30.797Z,12.80
2018-05-18T16:29:58.317Z,10.97
2018-05-18T16:32:25.820Z,13.37
2018-05-18T16:34:53.355Z,10.13
2018-05-18T16:37:20.856Z,11.73
2018-05-18T16:39:49.167Z,11.90
2018-05-18T16:42:16.670Z,11.03
2018-05-18T16:44:44.196Z,10.60
2018-05-18T16:47:11.721Z,10.60
2018-05-18T16:49:39.997Z,11.67
2018-05-18T16:52:08.279Z,10.50
2018-05-18T16:54:35.792Z,10.27
2018-05-18T16:57:03.309Z,9.87
2018-05-18T16:59:30.813Z,9.40
2018-05-18T17:01:58.337Z,9.40
2018-05-18T17:04:25.832Z,9.50
2018-05-18T17:06:53.357Z,9.53
2018-05-18T17:09:20.861Z,9.80
2018-05-18T17:11:48.382Z,9.83
2018-05-18T17:14:15.885Z,10.10
2018-05-18T17:16:44.176Z,9.97
2018-05-18T17:19:12.447Z,9.67
2018-05-18T17:21:41.005Z,9.80
2018-05-18T17:24:08.501Z,10.13
2018-05-18T17:26:36.028Z,12.17
2018-05-18T17:29:03.636Z,14.40
2018-05-18T17:31:31.245Z,13.90
2018-05-18T17:33:58.753Z,19.20
2018-05-18T17:36:26.257Z,14.80
2018-05-18T17:38:54.133Z,12.60
2018-05-18T17:41:21.645Z,11.17
2018-05-18T17:43:49.173Z,15.07
2018-05-18T17:46:17.444Z,17.30
2018-05-18T17:48:45.838Z,17.40
2018-05-18T17:51:13.261Z,13.70
2018-05-18T17:53:40.785Z,14.27
2018-05-18T17:56:08.300Z,12.70
2018-05-18T17:58:36.583Z,12.50
2018-05-18T18:01:04.094Z,14.43
2018-05-18T18:03:31.617Z,14.37
2018-05-18T18:05:59.120Z,13.80
2018-05-18T18:08:26.645Z,13.87
2018-05-18T18:10:54.154Z,12.63
2018-05-18T18:13:22.440Z,12.80
2018-05-18T18:15:50.709Z,13.10
2018-05-18T18:18:19.002Z,14.13
2018-05-18T18:20:46.509Z,13.20
2018-05-18T18:23:14.026Z,13.90
2018-05-18T18:25:41.550Z,14.10
2018-05-18T18:28:09.820Z,13.87
2018-05-18T18:30:37.348Z,16.27
2018-05-18T18:33:04.848Z,15.40
2018-05-18T18:35:33.136Z,12.90
2018-05-18T18:38:01.426Z,13.40
2018-05-18T18:40:28.961Z,14.10
2018-05-18T18:42:57.231Z,16.23
2018-05-18T18:45:25.522Z,14.80
2018-05-18T18:47:53.813Z,14.10
2018-05-18T18:50:21.378Z,14.43
2018-05-18T18:52:48.888Z,13.33
2018-05-18T18:55:16.490Z,13.77
2018-05-18T18:57:43.997Z,14.23
2018-05-18T19:00:11.609Z,13.70
2018-05-18T19:02:39.129Z,13.80
2018-05-18T19:05:06.652Z,15.07
2018-05-18T19:07:34.189Z,14.60
2018-05-18T19:10:01.717Z,14.10
2018-05-18T19:12:29.996Z,13.10
2018-05-18T19:14:58.297Z,13.20
2018-05-18T19:17:25.801Z,15.03
2018-05-18T19:19:53.409Z,15.30
2018-05-18T19:22:21.393Z,14.30
2018-05-18T19:24:48.900Z,13.00
2018-05-18T19:27:16.420Z,13.30
2018-05-18T19:29:44.024Z,13.03
2018-05-18T19:32:11.834Z,14.40
2018-05-18T19:34:39.376Z,14.07
2018-05-18T19:37:06.900Z,13.20
2018-05-18T19:39:34.493Z,13.70
2018-05-18T19:42:02.011Z,13.20
2018-05-18T19:44:29.521Z,12.63
2018-05-18T19:46:57.498Z,13.03
2018-05-18T19:49:25.064Z,12.37
2018-05-18T19:51:52.600Z,12.30
2018-05-18T19:54:20.161Z,14.10
2018-05-18T19:56:47.681Z,12.47
2018-05-18T19:59:15.276Z,14.70
2018-05-18T20:01:42.800Z,14.70
2018-05-18T20:04:11.074Z,13.10
2018-05-18T20:06:38.610Z,13.37
2018-05-18T20:09:06.117Z,13.60
2018-05-18T20:11:34.399Z,14.30
2018-05-18T20:14:02.684Z,13.90
2018-05-18T20:16:30.192Z,12.80
2018-05-18T20:18:57.714Z,13.73
2018-05-18T20:21:25.216Z,13.77
2018-05-18T20:23:54.252Z,14.23
2018-05-18T20:26:21.761Z,13.80
2018-05-18T20:28:49.373Z,13.07
2018-05-18T20:31:16.880Z,13.27
2018-05-18T20:33:44.485Z,13.83
2018-05-18T20:36:12.013Z,12.90
2018-05-18T20:38:39.532Z,13.53
2018-05-18T20:41:07.036Z,14.10
2018-05-18T20:43:35.325Z,12.13
2018-05-18T20:46:02.853Z,13.30
2018-05-18T20:48:31.152Z,13.40
2018-05-18T20:50:59.416Z,13.90
2018-05-18T20:53:26.950Z,13.90
2018-05-18T20:55:54.460Z,12.90
2018-05-18T20:58:21.985Z,13.83
2018-05-18T21:00:49.513Z,13.80
2018-05-18T21:03:17.147Z,14.17
2018-05-18T21:05:44.656Z,14.40
2018-05-18T21:08:12.262Z,13.53
2018-05-18T21:10:40.166Z,13.93
2018-05-18T21:13:07.661Z,13.70
2018-05-18T21:15:35.953Z,14.13
2018-05-18T21:18:04.217Z,14.63
2018-05-18T21:20:32.516Z,13.53
2018-05-18T21:23:00.073Z,13.20
2018-05-18T21:25:27.592Z,13.63
2018-05-18T21:27:55.865Z,14.10
2018-05-18T21:30:23.470Z,13.80
2018-05-18T21:32:50.974Z,14.07
2018-05-18T21:35:18.509Z,13.60
2018-05-18T21:37:46.017Z,13.60
2018-05-18T21:40:14.301Z,12.83
2018-05-18T21:42:42.574Z,14.40
2018-05-18T21:45:11.192Z,14.10
2018-05-18T21:47:38.699Z,14.03
2018-05-18T21:50:06.225Z,14.53
2018-05-18T21:52:33.729Z,14.23
2018-05-18T21:55:02.012Z,14.30
2018-05-18T21:57:30.284Z,13.47
2018-05-18T21:59:58.585Z,14.30
2018-05-18T22:02:26.091Z,14.40
2018-05-18T22:04:53.610Z,14.83
2018-05-18T22:07:21.167Z,13.90
2018-05-18T22:09:48.701Z,14.03
2018-05-18T22:12:16.992Z,14.80
2018-05-18T22:14:44.553Z,15.30
2018-05-18T22:17:12.072Z,15.63
2018-05-18T22:19:39.582Z,14.20
2018-05-18T22:22:07.130Z,13.03
2018-05-18T22:24:34.685Z,14.30
2018-05-18T22:27:02.206Z,15.73
2018-05-18T22:29:29.713Z,16.80
2018-05-18T22:31:57.261Z,16.60
2018-05-18T22:34:24.779Z,16.90
2018-05-18T22:36:52.304Z,15.10
2018-05-18T22:39:19.809Z,16.27
2018-05-18T22:41:48.101Z,16.67
2018-05-18T22:44:16.368Z,18.57
2018-05-18T22:46:44.666Z,16.80
2018-05-18T22:49:12.221Z,16.93
2018-05-18T22:51:39.760Z,17.00
2018-05-18T22:54:08.033Z,17.30
2018-05-18T22:56:36.331Z,17.03
2018-05-18T22:59:03.830Z,17.97
2018-05-18T23:01:33.193Z,18.23
2018-05-18T23:04:00.753Z,18.57
2018-05-18T23:06:28.313Z,19.30
2018-05-18T23:08:55.869Z,18.40
2018-05-18T23:11:23.379Z,19.17
2018-05-18T23:13:50.897Z,17.37
2018-05-18T23:16:18.449Z,18.57
2018-05-18T23:18:45.968Z,19.13
2018-05-18T23:21:14.276Z,20.87
2018-05-18T23:23:41.797Z,20.47
2018-05-18T23:26:10.112Z,19.63
2018-05-18T23:28:37.629Z,21.00
2018-05-18T23:31:06.648Z,19.60
2018-05-18T23:33:34.933Z,21.07
2018-05-18T23:36:03.225Z,19.40
2018-05-18T23:38:30.745Z,21.50
2018-05-18T23:40:58.246Z,20.90
2018-05-18T23:43:25.804Z,20.23
2018-05-18T23:45:53.348Z,20.57
2018-05-18T23:48:20.892Z,20.10
2018-05-18T23:50:49.162Z,21.03
2018-05-18T23:53:17.453Z,19.80
2018-05-18T23:55:44.953Z,19.87
2018-05-18T23:58:12.468Z,20.73
